Decoded Metar for UATG (ATYRAU in KAZAKHSTAN) (IATA:N/A) | Meteo·Mobile Aviation Weather
aviador You're here:

UATG Decoded Metar

ATYRAU in KAZAKHSTAN
Report Time2019-07-24 05:00:00
UTC Time2019-07-24 05:34:08
Flight Rules vfr VFR
Wind050° at 10 kt
W.Decomp.*RWY 32: 1.4 kt HW 9.9 kt RCW
Visibility9999 m
Phenomena:N/A
Clouds:Scattered CB 050 Hf
Expected CloudBase > 7,200 ft AGL from Temp-Dew spread
CeilingNone
Temp27°C (ISA +12)
Dew Point09°C (32% RH)
Heat Index26.5°C
AAT23.2°C
QNH1011 hPa
Density Alt1,519 ft
Elevation-72 ft
Report Wrong Elevation
Raw Report
METAR UATG 240500Z 05005MPS 9999 SCT050CB 27/09 Q1011 R32/CLRD70
NOSIG RMK QFE760/1014=

Extra information for UATG:More info

Metar Taf Metar & Taf Last 4 Metars F.Rules Stats Wind Profile Meteogram Temp Stats Airport Information Weather charts Add Link Nearby VenuesMetar ALERT Operation Metar Decoded Social comments